Time,TemperatureF,DewpointF,PressureIn,WindDirection,WindDirectionDegrees,WindSpeedMPH,WindSpeedGustMPH,Humidity,HourlyPrecipIn,Conditions,Clouds,dailyrainin,SolarRadiationWatts/m^2,SoftwareType,DateUTC
2013-02-27 00:02:00,33.0,32.0,-100.00,NNE,25,7.0,9.0,95,0.01,,,0.42,0.000000,,2013-02-27 06:02:00,
2013-02-27 00:33:00,33.0,32.0,-100.00,NNE,12,5.0,6.0,95,0.01,,,-99.99,0.000000,,2013-02-27 06:33:00,
2013-02-27 00:42:00,33.0,32.0,-100.00,NNE,12,5.0,6.0,95,0.01,,,-99.99,0.000000,,2013-02-27 06:42:00,
2013-02-27 00:52:00,33.0,32.0,-100.00,NNE,12,5.0,6.0,95,0.01,,,-99.99,0.000000,,2013-02-27 06:52:00,
2013-02-27 01:01:00,33.0,32.0,-100.00,NNE,12,5.0,6.0,95,0.01,,,-99.99,0.000000,,2013-02-27 07:01:00,
2013-02-27 01:32:00,33.0,32.0,-100.00,North,351,5.0,6.0,96,0.01,,,0.44,0.000000,,2013-02-27 07:32:00,
2013-02-27 01:42:00,33.0,32.0,-100.00,North,351,5.0,6.0,96,0.01,,,0.44,0.000000,,2013-02-27 07:42:00,
2013-02-27 01:52:00,33.0,32.0,-100.00,North,351,5.0,6.0,96,0.01,,,0.44,0.000000,,2013-02-27 07:52:00,
2013-02-27 02:01:00,33.0,32.0,-100.00,North,351,5.0,6.0,96,0.01,,,0.44,0.000000,,2013-02-27 08:01:00,
2013-02-27 02:32:00,33.0,32.0,-100.00,NNW,328,4.0,6.0,95,0.00,,,0.44,0.000000,,2013-02-27 08:32:00,
2013-02-27 02:42:00,33.0,32.0,-100.00,NNW,328,4.0,6.0,95,0.00,,,0.44,0.000000,,2013-02-27 08:42:00,
2013-02-27 02:53:00,33.0,32.0,-100.00,NNW,328,4.0,6.0,95,0.00,,,0.44,0.000000,,2013-02-27 08:53:00,
2013-02-27 03:02:00,33.0,32.0,-100.00,NNW,328,4.0,6.0,95,0.00,,,0.44,0.000000,,2013-02-27 09:02:00,
2013-02-27 03:32:00,33.0,32.0,-100.00,NNW,335,7.0,9.0,95,0.01,,,0.45,0.000000,,2013-02-27 09:32:00,
2013-02-27 03:42:00,33.0,32.0,-100.00,NNW,335,7.0,9.0,95,0.01,,,0.45,0.000000,,2013-02-27 09:42:00,
2013-02-27 03:52:00,33.0,32.0,-100.00,NNW,335,7.0,9.0,95,0.01,,,0.45,0.000000,,2013-02-27 09:52:00,
2013-02-27 04:01:00,33.0,32.0,-100.00,NNW,335,7.0,9.0,95,0.01,,,0.45,0.000000,,2013-02-27 10:01:00,
2013-02-27 04:32:00,33.0,32.0,-100.00,NW,323,7.0,10.0,95,0.00,,,0.45,0.000000,,2013-02-27 10:32:00,
2013-02-27 04:42:00,33.0,32.0,-100.00,NW,323,7.0,10.0,95,0.00,,,0.45,0.000000,,2013-02-27 10:42:00,
2013-02-27 04:53:00,33.0,32.0,-100.00,NW,323,7.0,10.0,95,0.00,,,0.45,0.000000,,2013-02-27 10:53:00,
2013-02-27 05:02:00,33.0,32.0,-100.00,NW,323,7.0,10.0,95,0.00,,,0.45,0.000000,,2013-02-27 11:02:00,
2013-02-27 05:32:00,33.0,32.0,-100.00,NW,312,6.0,8.0,95,0.01,,,0.46,0.000000,,2013-02-27 11:32:00,
2013-02-27 05:42:00,33.0,32.0,-100.00,NW,312,6.0,8.0,95,0.01,,,0.46,0.000000,,2013-02-27 11:42:00,
2013-02-27 05:52:00,33.0,32.0,-100.00,NW,312,6.0,8.0,95,0.01,,,0.46,0.000000,,2013-02-27 11:52:00,
2013-02-27 06:02:00,33.0,32.0,-100.00,NW,312,6.0,8.0,95,0.01,,,0.46,0.000000,,2013-02-27 12:02:00,
2013-02-27 06:33:00,33.0,32.0,-100.00,WNW,300,5.0,8.0,96,0.00,,,0.46,0.000000,,2013-02-27 12:33:00,
2013-02-27 06:42:00,33.0,32.0,-100.00,WNW,300,5.0,8.0,96,0.00,,,0.46,0.000000,,2013-02-27 12:42:00,
2013-02-27 06:52:00,33.0,32.0,-100.00,WNW,300,5.0,8.0,96,0.00,,,0.46,0.000000,,2013-02-27 12:52:00,
2013-02-27 07:02:00,33.0,32.0,-100.00,WNW,300,5.0,8.0,96,0.00,,,0.46,0.000000,,2013-02-27 13:02:00,
2013-02-27 07:32:00,33.0,32.0,-100.00,NW,320,7.0,10.0,97,0.01,,,0.47,3.000000,,2013-02-27 13:32:00,
2013-02-27 07:42:00,33.0,32.0,-100.00,NW,320,7.0,10.0,97,0.01,,,0.47,3.000000,,2013-02-27 13:42:00,
2013-02-27 07:52:00,33.0,32.0,-100.00,NW,320,7.0,10.0,97,0.01,,,0.47,3.000000,,2013-02-27 13:52:00,
2013-02-27 08:02:00,33.0,32.0,-100.00,NW,320,7.0,10.0,97,0.01,,,0.47,3.000000,,2013-02-27 14:02:00,
2013-02-27 08:32:00,33.0,32.0,-100.00,NW,319,7.0,8.0,96,0.00,,,0.47,28.000000,,2013-02-27 14:32:00,
2013-02-27 08:42:00,33.0,32.0,-100.00,NW,319,7.0,8.0,96,0.00,,,0.47,28.000000,,2013-02-27 14:42:00,
2013-02-27 08:52:00,33.0,32.0,-100.00,NW,319,7.0,8.0,96,0.00,,,0.47,28.000000,,2013-02-27 14:52:00,
2013-02-27 09:02:00,33.0,32.0,-100.00,NW,319,7.0,8.0,96,0.00,,,0.47,28.000000,,2013-02-27 15:02:00,
2013-02-27 09:32:00,32.0,31.0,-100.00,WNW,297,7.0,11.0,96,0.02,,,0.49,71.000000,,2013-02-27 15:32:00,
2013-02-27 09:42:00,32.0,31.0,-100.00,WNW,297,7.0,11.0,96,0.02,,,0.49,71.000000,,2013-02-27 15:42:00,
2013-02-27 09:52:00,32.0,31.0,-100.00,WNW,297,7.0,11.0,96,0.02,,,0.49,71.000000,,2013-02-27 15:52:00,
2013-02-27 10:02:00,32.0,31.0,-100.00,WNW,297,7.0,11.0,96,0.02,,,0.49,71.000000,,2013-02-27 16:02:00,
2013-02-27 10:32:00,32.0,30.0,-100.00,NW,310,8.0,12.0,92,0.01,,,-99.99,118.000000,,2013-02-27 16:32:00,
2013-02-27 10:42:00,32.0,30.0,-100.00,NW,310,8.0,12.0,92,0.01,,,-99.99,118.000000,,2013-02-27 16:42:00,
2013-02-27 10:52:00,32.0,30.0,-100.00,NW,310,8.0,12.0,92,0.01,,,-99.99,118.000000,,2013-02-27 16:52:00,
2013-02-27 11:02:00,32.0,30.0,-100.00,NW,310,8.0,12.0,92,0.01,,,-99.99,118.000000,,2013-02-27 17:02:00,
2013-02-27 11:32:00,32.0,29.0,-100.00,NW,308,9.0,13.0,88,0.01,,,-99.99,157.000000,,2013-02-27 17:32:00,
2013-02-27 11:42:00,32.0,29.0,-100.00,NW,308,9.0,13.0,88,0.01,,,-99.99,157.000000,,2013-02-27 17:42:00,
2013-02-27 11:52:00,32.0,29.0,-100.00,NW,308,9.0,13.0,88,0.01,,,-99.99,157.000000,,2013-02-27 17:52:00,
2013-02-27 12:02:00,32.0,29.0,-100.00,NW,308,9.0,13.0,88,0.01,,,-99.99,157.000000,,2013-02-27 18:02:00,
2013-02-27 12:32:00,32.0,29.0,-100.00,WNW,302,9.0,10.0,87,0.00,,,0.34,220.000000,,2013-02-27 18:32:00,
2013-02-27 12:42:00,32.0,29.0,-100.00,WNW,302,9.0,10.0,87,0.00,,,0.34,220.000000,,2013-02-27 18:42:00,
2013-02-27 12:52:00,32.0,29.0,-100.00,WNW,302,9.0,10.0,87,0.00,,,0.34,220.000000,,2013-02-27 18:52:00,
2013-02-27 13:01:00,32.0,29.0,-100.00,WNW,302,9.0,10.0,87,0.00,,,0.34,220.000000,,2013-02-27 19:01:00,
2013-02-27 13:32:00,33.0,30.0,-100.00,NW,304,8.0,11.0,87,0.00,,,0.34,180.000000,,2013-02-27 19:32:00,
2013-02-27 13:42:00,33.0,30.0,-100.00,NW,304,8.0,11.0,87,0.00,,,0.34,180.000000,,2013-02-27 19:42:00,
2013-02-27 13:52:00,33.0,30.0,-100.00,NW,304,8.0,11.0,87,0.00,,,0.34,180.000000,,2013-02-27 19:52:00,
2013-02-27 14:01:00,33.0,30.0,-100.00,NW,304,8.0,11.0,87,0.00,,,0.34,180.000000,,2013-02-27 20:01:00,
2013-02-27 14:32:00,33.0,30.0,-100.00,WNW,303,10.0,12.0,87,0.00,,,-99.99,165.000000,,2013-02-27 20:32:00,
2013-02-27 14:42:00,33.0,30.0,-100.00,WNW,303,10.0,12.0,87,0.00,,,-99.99,165.000000,,2013-02-27 20:42:00,
2013-02-27 14:52:00,33.0,30.0,-100.00,WNW,303,10.0,12.0,87,0.00,,,-99.99,165.000000,,2013-02-27 20:52:00,
2013-02-27 15:02:00,33.0,30.0,-100.00,WNW,303,10.0,12.0,87,0.00,,,-99.99,165.000000,,2013-02-27 21:02:00,
2013-02-27 15:32:00,33.0,30.0,-100.00,WNW,297,9.0,11.0,87,0.00,,,-99.99,136.000000,,2013-02-27 21:32:00,
2013-02-27 15:42:00,33.0,30.0,-100.00,WNW,297,9.0,11.0,87,0.00,,,-99.99,136.000000,,2013-02-27 21:42:00,
2013-02-27 15:52:00,33.0,30.0,-100.00,WNW,297,9.0,11.0,87,0.00,,,-99.99,136.000000,,2013-02-27 21:52:00,
2013-02-27 16:01:00,33.0,30.0,-100.00,WNW,297,9.0,11.0,87,0.00,,,-99.99,136.000000,,2013-02-27 22:01:00,
2013-02-27 16:32:00,33.0,30.0,-100.00,WNW,300,9.0,12.0,87,0.00,,,0.23,70.000000,,2013-02-27 22:32:00,
2013-02-27 16:42:00,33.0,30.0,-100.00,WNW,300,9.0,12.0,87,0.00,,,0.23,70.000000,,2013-02-27 22:42:00,
2013-02-27 16:52:00,33.0,30.0,-100.00,WNW,300,9.0,12.0,87,0.00,,,0.23,70.000000,,2013-02-27 22:52:00,
2013-02-27 17:01:00,33.0,30.0,-100.00,WNW,300,9.0,12.0,87,0.00,,,0.23,70.000000,,2013-02-27 23:01:00,
2013-02-27 17:32:00,32.0,30.0,-100.00,WNW,298,9.0,10.0,93,0.00,,,0.19,40.000000,,2013-02-27 23:32:00,
2013-02-27 17:42:00,32.0,30.0,-100.00,WNW,298,9.0,10.0,93,0.00,,,0.19,40.000000,,2013-02-27 23:42:00,
2013-02-27 17:53:00,32.0,30.0,-100.00,WNW,298,9.0,10.0,93,0.00,,,0.19,40.000000,,2013-02-27 23:53:00,
2013-02-27 18:02:00,32.0,30.0,-100.00,WNW,298,9.0,10.0,93,0.00,,,0.19,40.000000,,2013-02-28 00:02:00,
2013-02-27 18:32:00,32.0,31.0,-100.00,NW,308,9.0,14.0,96,0.00,,,0.17,8.000000,,2013-02-28 00:32:00,
2013-02-27 18:42:00,32.0,31.0,-100.00,NW,308,9.0,14.0,96,0.00,,,0.17,8.000000,,2013-02-28 00:42:00,
2013-02-27 18:52:00,32.0,31.0,-100.00,NW,308,9.0,14.0,96,0.00,,,0.17,8.000000,,2013-02-28 00:52:00,
2013-02-27 19:01:00,32.0,31.0,-100.00,NW,308,9.0,14.0,96,0.00,,,0.17,8.000000,,2013-02-28 01:01:00,
2013-02-27 19:32:00,32.0,30.0,-100.00,NW,312,10.0,12.0,94,0.00,,,0.16,0.000000,,2013-02-28 01:32:00,
2013-02-27 19:42:00,32.0,30.0,-100.00,NW,312,10.0,12.0,94,0.00,,,0.16,0.000000,,2013-02-28 01:42:00,
2013-02-27 19:52:00,32.0,30.0,-100.00,NW,312,10.0,12.0,94,0.00,,,0.16,0.000000,,2013-02-28 01:52:00,
2013-02-27 20:01:00,32.0,30.0,-100.00,NW,312,10.0,12.0,94,0.00,,,0.16,0.000000,,2013-02-28 02:01:00,
2013-02-27 20:32:00,33.0,30.0,-100.00,NW,317,11.0,14.0,90,0.00,,,0.13,0.000000,,2013-02-28 02:32:00,
2013-02-27 20:42:00,33.0,30.0,-100.00,NW,317,11.0,14.0,90,0.00,,,0.13,0.000000,,2013-02-28 02:42:00,
2013-02-27 20:52:00,33.0,30.0,-100.00,NW,317,11.0,14.0,90,0.00,,,0.13,0.000000,,2013-02-28 02:52:00,
2013-02-27 21:01:00,33.0,30.0,-100.00,NW,317,11.0,14.0,90,0.00,,,0.13,0.000000,,2013-02-28 03:01:00,
2013-02-27 21:32:00,32.0,30.0,-100.00,NW,320,12.0,15.0,91,0.00,,,0.12,0.000000,,2013-02-28 03:32:00,
2013-02-27 21:42:00,32.0,30.0,-100.00,NW,320,12.0,15.0,91,0.00,,,0.12,0.000000,,2013-02-28 03:42:00,
2013-02-27 21:52:00,32.0,30.0,-100.00,NW,320,12.0,15.0,91,0.00,,,0.12,0.000000,,2013-02-28 03:52:00,
2013-02-27 22:01:00,32.0,30.0,-100.00,NW,320,12.0,15.0,91,0.00,,,0.12,0.000000,,2013-02-28 04:01:00,
2013-02-27 22:32:00,32.0,30.0,-100.00,NW,322,11.0,16.0,94,0.00,,,0.10,0.000000,,2013-02-28 04:32:00,
2013-02-27 22:42:00,32.0,30.0,-100.00,NW,322,11.0,16.0,94,0.00,,,0.10,0.000000,,2013-02-28 04:42:00,
2013-02-27 22:52:00,32.0,30.0,-100.00,NW,322,11.0,16.0,94,0.00,,,0.10,0.000000,,2013-02-28 04:52:00,
2013-02-27 23:01:00,32.0,30.0,-100.00,NW,322,11.0,16.0,94,0.00,,,0.10,0.000000,,2013-02-28 05:01:00,
2013-02-27 23:32:00,32.0,30.0,-100.00,NW,323,11.0,16.0,91,0.00,,,0.09,0.000000,,2013-02-28 05:32:00,
2013-02-27 23:43:00,32.0,30.0,-100.00,NW,323,11.0,16.0,91,0.00,,,0.09,0.000000,,2013-02-28 05:43:00,
2013-02-27 23:52:00,32.0,30.0,-100.00,NW,323,11.0,16.0,91,0.00,,,0.09,0.000000,,2013-02-28 05:52:00,